Broadwell, Illinois
Current Conditions -  °F | °C
As of 11:52 PM on Wednesday 28 Jan 2015 (Local Time) from KSPI Reporting Station
Clear Clear  
Wind Chill:   Ceiling: Unl
Heat Index:   Visibility: 10mi
Dew Point:   Wind: 20mph
Humidity: 70%   Direction: 170°S
Pressure: 29.78"   Gusts: NA
Location:  39.9935°N, 89.4758°W
Report Text: KSPI 290552Z AUTO 17017KT 10SM CLR 05/00 A2978 RMK AO2 PK WND 18029/0504 SLP088 60001 T00500000 10056 20039 400611044 58032
Loading
Personal Weather Stations






























Interactive Weather Map New forecast layout! Learn more

10-Day Weather Forecast

Advertisements
Track Severe Weather on mobile